TAF KJBR
KJBR 270524Z 2706/2806 21005KT P6SM SKC FM271500 22014G20KT P6SM FEW250 FM272300 23005KT P6SM SCT250=
METAR KJBR
WC KJBR
WS KJBR
WV KJBR